createdAt,value
2018-01-29T00:00:13.824Z,18.63
2018-01-29T00:01:22.527Z,18.66
2018-01-29T00:02:31.233Z,18.66
2018-01-29T00:03:40.202Z,18.63
2018-01-29T00:04:49.174Z,18.54
2018-01-29T00:05:58.148Z,18.66
2018-01-29T00:07:07.387Z,18.55
2018-01-29T00:08:16.360Z,18.63
2018-01-29T00:09:25.331Z,18.65
2018-01-29T00:10:34.303Z,18.62
2018-01-29T00:11:43.808Z,18.62
2018-01-29T00:12:52.776Z,18.51
2018-01-29T00:14:01.747Z,18.58
2018-01-29T00:15:11.259Z,18.69
2018-01-29T00:16:19.963Z,18.67
2018-01-29T00:17:29.467Z,18.62
2018-01-29T00:18:38.710Z,18.66
2018-01-29T00:19:47.675Z,18.58
2018-01-29T00:20:56.378Z,18.58
2018-01-29T00:22:05.615Z,18.6
2018-01-29T00:23:14.583Z,18.6
2018-01-29T00:24:23.554Z,18.6
2018-01-29T00:25:32.531Z,18.66
2018-01-29T00:26:41.234Z,18.55
2018-01-29T00:27:49.939Z,18.6
2018-01-29T00:28:58.644Z,18.57
2018-01-29T00:30:07.615Z,18.57
2018-01-29T00:31:16.585Z,18.66
2018-01-29T00:32:25.556Z,18.58
2018-01-29T00:33:34.528Z,18.63
2018-01-29T00:34:43.232Z,18.54
2018-01-29T00:35:51.936Z,18.55
2018-01-29T00:37:00.640Z,18.6
2018-01-29T00:38:09.615Z,18.58
2018-01-29T00:39:18.583Z,18.52
2018-01-29T00:40:27.288Z,18.55
2018-01-29T00:41:36.266Z,18.58
2018-01-29T00:42:44.969Z,18.55
2018-01-29T00:43:54.210Z,18.6
2018-01-29T00:45:03.447Z,18.57
2018-01-29T00:46:12.148Z,18.54
2018-01-29T00:47:21.389Z,18.6
2018-01-29T00:48:30.633Z,18.54
2018-01-29T00:49:39.602Z,18.51
2018-01-29T00:50:48.307Z,18.58
2018-01-29T00:51:57.277Z,18.54
2018-01-29T00:53:06.248Z,18.52
2018-01-29T00:54:15.219Z,18.5
2018-01-29T00:55:23.919Z,18.58
2018-01-29T00:56:32.895Z,18.52
2018-01-29T00:57:41.599Z,18.52
2018-01-29T00:58:50.570Z,18.6
2018-01-29T00:59:59.273Z,18.57
2018-01-29T01:01:07.977Z,18.58
2018-01-29T01:02:16.946Z,18.52
2018-01-29T01:03:25.647Z,18.47
2018-01-29T01:04:34.619Z,18.58
2018-01-29T01:05:43.320Z,18.55
2018-01-29T01:06:52.561Z,18.48
2018-01-29T01:08:01.798Z,18.48
2018-01-29T01:09:11.042Z,18.57
2018-01-29T01:10:20.544Z,18.55
2018-01-29T01:11:29.517Z,18.54
2018-01-29T01:12:38.218Z,18.48
2018-01-29T01:13:46.925Z,18.47
2018-01-29T01:14:56.429Z,18.62
2018-01-29T01:16:05.409Z,18.5
2018-01-29T01:17:14.646Z,18.52
2018-01-29T01:18:23.352Z,18.51
2018-01-29T01:19:32.329Z,18.52
2018-01-29T01:20:41.300Z,18.45
2018-01-29T01:21:50.546Z,18.5
2018-01-29T01:22:59.247Z,18.42
2018-01-29T01:24:08.483Z,18.5
2018-01-29T01:25:17.187Z,18.47
2018-01-29T01:26:26.157Z,18.41
2018-01-29T01:27:34.861Z,18.39
2018-01-29T01:28:43.565Z,18.51
2018-01-29T01:29:52.271Z,18.51
2018-01-29T01:31:01.240Z,18.42
2018-01-29T01:32:09.944Z,18.55
2018-01-29T01:33:18.912Z,18.5
2018-01-29T01:34:28.151Z,18.48
2018-01-29T01:35:37.121Z,18.45
2018-01-29T01:36:45.821Z,18.42
2018-01-29T01:37:55.058Z,18.55
2018-01-29T01:39:04.031Z,18.52
2018-01-29T01:40:13.272Z,18.44
2018-01-29T01:41:22.775Z,18.5
2018-01-29T01:42:32.010Z,18.5
2018-01-29T01:43:40.717Z,18.42
2018-01-29T01:44:49.689Z,18.51
2018-01-29T01:45:58.659Z,18.5
2018-01-29T01:47:07.639Z,18.52
2018-01-29T01:48:16.345Z,18.44
2018-01-29T01:49:25.317Z,18.51
2018-01-29T01:50:34.834Z,18.48
2018-01-29T01:51:43.797Z,18.52
2018-01-29T01:52:52.816Z,18.48
2018-01-29T01:54:02.054Z,18.42
2018-01-29T01:55:11.558Z,18.47
2018-01-29T01:56:20.795Z,18.5
2018-01-29T01:57:29.764Z,18.47
2018-01-29T01:58:38.477Z,18.44
2018-01-29T01:59:47.989Z,18.51
2018-01-29T02:00:56.962Z,18.44
2018-01-29T02:02:06.466Z,18.41
2018-01-29T02:03:15.438Z,18.51
2018-01-29T02:04:24.407Z,18.48
2018-01-29T02:05:33.109Z,18.48
2018-01-29T02:06:42.347Z,18.44
2018-01-29T02:07:51.318Z,18.47
2018-01-29T02:09:00.303Z,18.45
2018-01-29T02:10:09.259Z,18.45
2018-01-29T02:11:17.968Z,18.42
2018-01-29T02:12:27.208Z,18.5
2018-01-29T02:13:36.451Z,18.47
2018-01-29T02:14:45.419Z,18.47
2018-01-29T02:15:54.121Z,18.45
2018-01-29T02:17:03.089Z,18.48
2018-01-29T02:18:11.791Z,18.47
2018-01-29T02:19:20.495Z,18.48
2018-01-29T02:20:29.202Z,18.41
2018-01-29T02:21:38.439Z,18.42
2018-01-29T02:22:47.418Z,18.45
2018-01-29T02:23:56.386Z,18.35
2018-01-29T02:25:05.361Z,18.37
2018-01-29T02:26:14.333Z,18.45
2018-01-29T02:27:23.304Z,18.45
2018-01-29T02:28:32.274Z,18.39
2018-01-29T02:29:41.247Z,18.39
2018-01-29T02:30:50.493Z,18.36
2018-01-29T02:31:59.201Z,18.45
2018-01-29T02:33:08.439Z,18.41
2018-01-29T02:34:18.232Z,18.39
2018-01-29T02:35:27.469Z,18.45
2018-01-29T02:36:36.976Z,18.36
2018-01-29T02:37:45.684Z,18.35
2018-01-29T02:38:54.919Z,18.36
2018-01-29T02:40:03.622Z,18.47
2018-01-29T02:41:12.326Z,18.44
2018-01-29T02:42:21.295Z,18.36
2018-01-29T02:43:30.000Z,18.35
2018-01-29T02:44:39.241Z,18.37
2018-01-29T02:45:48.214Z,18.39
2018-01-29T02:46:56.920Z,18.33
2018-01-29T02:48:05.625Z,18.37
2018-01-29T02:49:14.599Z,18.42
2018-01-29T02:50:23.574Z,18.33
2018-01-29T02:51:32.562Z,18.36
2018-01-29T02:52:41.537Z,18.36
2018-01-29T02:53:51.050Z,18.36
2018-01-29T02:55:00.020Z,18.35
2018-01-29T02:56:09.005Z,18.32
2018-01-29T02:57:18.776Z,18.39
2018-01-29T02:58:27.477Z,18.32
2018-01-29T02:59:36.449Z,18.37
2018-01-29T03:00:45.418Z,18.37
2018-01-29T03:01:54.655Z,18.37
2018-01-29T03:03:03.895Z,18.42
2018-01-29T03:04:12.603Z,18.32
2018-01-29T03:05:21.843Z,18.42
2018-01-29T03:06:30.546Z,18.42
2018-01-29T03:07:39.524Z,18.33
2018-01-29T03:08:54.763Z,18.35
2018-01-29T03:10:03.723Z,18.3
2018-01-29T03:11:12.951Z,18.36
2018-01-29T03:12:21.915Z,18.33
2018-01-29T03:13:31.144Z,18.35
2018-01-29T03:14:39.840Z,18.35
2018-01-29T03:15:48.802Z,18.36
2018-01-29T03:16:57.765Z,18.32
2018-01-29T03:18:06.459Z,18.36
2018-01-29T03:19:15.154Z,18.33
2018-01-29T03:20:23.844Z,18.27
2018-01-29T03:21:33.069Z,18.33
2018-01-29T03:22:42.343Z,18.37
2018-01-29T03:23:51.035Z,18.29
2018-01-29T03:24:59.726Z,18.36
2018-01-29T03:26:08.693Z,18.37
2018-01-29T03:27:17.653Z,18.3
2018-01-29T03:28:26.349Z,18.33
2018-01-29T03:29:35.043Z,18.26
2018-01-29T03:30:44.285Z,18.29
2018-01-29T03:31:53.519Z,18.33
2018-01-29T03:33:02.213Z,18.29
2018-01-29T03:34:11.435Z,18.33
2018-01-29T03:35:20.419Z,18.32
2018-01-29T03:36:29.385Z,18.32
2018-01-29T03:37:38.342Z,18.26
2018-01-29T03:38:47.036Z,18.3
2018-01-29T03:39:55.727Z,18.26
2018-01-29T03:41:05.222Z,18.29
2018-01-29T03:42:14.181Z,18.35
2018-01-29T03:43:23.406Z,18.25
2018-01-29T03:44:32.099Z,18.35
2018-01-29T03:45:41.328Z,18.25
2018-01-29T03:46:50.023Z,18.23
2018-01-29T03:47:58.720Z,18.25
2018-01-29T03:49:07.942Z,18.3
2018-01-29T03:50:16.901Z,18.3
2018-01-29T03:51:25.864Z,18.23
2018-01-29T03:52:35.088Z,18.32
2018-01-29T03:53:44.311Z,18.2
2018-01-29T03:54:53.269Z,18.2
2018-01-29T03:56:02.230Z,18.21
2018-01-29T03:57:10.927Z,18.18
2018-01-29T03:58:19.884Z,18.25
2018-01-29T03:59:28.844Z,18.23
2018-01-29T04:00:37.539Z,18.2
2018-01-29T04:01:46.496Z,18.26
2018-01-29T04:02:55.724Z,18.25
2018-01-29T04:04:04.418Z,18.2
2018-01-29T04:05:13.642Z,18.21
2018-01-29T04:06:22.338Z,18.21
2018-01-29T04:07:31.029Z,18.25
2018-01-29T04:08:40.254Z,18.23
2018-01-29T04:09:49.214Z,18.23
2018-01-29T04:10:57.905Z,18.21
2018-01-29T04:12:06.599Z,18.29
2018-01-29T04:13:15.295Z,18.26
2018-01-29T04:14:23.988Z,18.27
2018-01-29T04:15:32.951Z,18.2
2018-01-29T04:16:41.644Z,18.23
2018-01-29T04:17:50.336Z,18.17
2018-01-29T04:18:59.031Z,18.21
2018-01-29T04:20:07.989Z,18.25
2018-01-29T04:21:16.681Z,18.23
2018-01-29T04:22:25.374Z,18.25
2018-01-29T04:23:34.335Z,18.2
2018-01-29T04:24:43.297Z,18.18
2018-01-29T04:25:52.537Z,18.25
2018-01-29T04:27:01.503Z,18.21
2018-01-29T04:28:10.193Z,18.18
2018-01-29T04:29:18.890Z,18.18
2018-01-29T04:30:27.858Z,18.21
2018-01-29T04:31:36.554Z,18.2
2018-01-29T04:32:45.242Z,18.21
2018-01-29T04:33:54.201Z,18.15
2018-01-29T04:35:02.892Z,18.23
2018-01-29T04:36:12.441Z,18.23
2018-01-29T04:37:21.402Z,18.14
2018-01-29T04:38:30.094Z,18.15
2018-01-29T04:39:39.323Z,18.21
2018-01-29T04:40:48.021Z,18.15
2018-01-29T04:41:57.508Z,18.18
2018-01-29T04:43:06.465Z,18.2
2018-01-29T04:44:15.431Z,18.17
2018-01-29T04:45:24.122Z,18.15
2018-01-29T04:46:32.817Z,18.2
2018-01-29T04:47:41.809Z,18.2
2018-01-29T04:48:51.041Z,18.23
2018-01-29T04:50:00.002Z,18.15
2018-01-29T04:51:09.232Z,18.08
2018-01-29T04:52:18.189Z,18.12
2018-01-29T04:53:27.151Z,18.05
2018-01-29T04:54:36.379Z,18.08
2018-01-29T04:55:45.074Z,18.2
2018-01-29T04:56:54.032Z,18.15
2018-01-29T04:58:03.256Z,18.07
2018-01-29T04:59:11.948Z,18.1
2018-01-29T05:00:20.641Z,18.11
2018-01-29T05:01:29.872Z,18.11
2018-01-29T05:02:39.098Z,18.17
2018-01-29T05:03:48.325Z,18.18
2018-01-29T05:04:57.281Z,18.1
2018-01-29T05:06:05.976Z,18.14
2018-01-29T05:07:14.668Z,18.1
2018-01-29T05:08:23.361Z,18.11
2018-01-29T05:09:32.054Z,18.1
2018-01-29T05:10:41.550Z,18.1
2018-01-29T05:11:51.037Z,18.07
2018-01-29T05:12:59.998Z,18.08
2018-01-29T05:14:09.497Z,18.1
2018-01-29T05:15:18.454Z,18.12
2018-01-29T05:16:27.412Z,18.08
2018-01-29T05:17:36.905Z,18.08
2018-01-29T05:18:45.866Z,18.08
2018-01-29T05:19:54.559Z,18.03
2018-01-29T05:21:03.786Z,18.11
2018-01-29T05:22:12.744Z,18.08
2018-01-29T05:23:21.436Z,18.12
2018-01-29T05:24:30.665Z,18.11
2018-01-29T05:25:39.358Z,18.1
2018-01-29T05:26:48.315Z,18.02
2018-01-29T05:27:57.277Z,18.1
2018-01-29T05:29:06.238Z,18.05
2018-01-29T05:30:15.463Z,18.1
2018-01-29T05:31:24.691Z,18.07
2018-01-29T05:32:33.377Z,18.1
2018-01-29T05:33:42.597Z,18.03
2018-01-29T05:34:51.569Z,18.08
2018-01-29T05:36:00.798Z,18.08
2018-01-29T05:37:09.761Z,18.07
2018-01-29T05:38:18.728Z,18.05
2018-01-29T05:39:27.424Z,18.07
2018-01-29T05:40:36.650Z,18.07
2018-01-29T05:41:45.349Z,18.15
2018-01-29T05:42:54.309Z,18.07
2018-01-29T05:44:03.268Z,18.1
2018-01-29T05:45:11.960Z,18.02
2018-01-29T05:46:20.919Z,18.12
2018-01-29T05:47:29.879Z,18.14
2018-01-29T05:48:39.105Z,18.11
2018-01-29T05:49:48.064Z,18.1
2018-01-29T05:50:56.759Z,18.07
2018-01-29T05:52:05.454Z,18.05
2018-01-29T05:53:14.147Z,18.12
2018-01-29T05:54:23.636Z,18.03
2018-01-29T05:55:32.329Z,18.1
2018-01-29T05:56:41.021Z,18.02
2018-01-29T05:57:49.717Z,18.08
2018-01-29T05:58:58.678Z,18.12
2018-01-29T06:00:07.640Z,18.08
2018-01-29T06:01:16.600Z,18.11
2018-01-29T06:02:25.559Z,18.07
2018-01-29T06:03:34.519Z,18.08
2018-01-29T06:04:43.213Z,18.1
2018-01-29T06:05:52.444Z,18.05
2018-01-29T06:07:01.668Z,18.1
2018-01-29T06:08:10.897Z,18.1
2018-01-29T06:09:19.603Z,18.1
2018-01-29T06:10:28.570Z,18.12
2018-01-29T06:11:37.805Z,18.11
2018-01-29T06:12:46.500Z,18.07
2018-01-29T06:13:55.461Z,18.1
2018-01-29T06:15:04.688Z,18.08
2018-01-29T06:16:13.382Z,18.1
2018-01-29T06:17:22.076Z,18.1
2018-01-29T06:18:31.039Z,18.08
2018-01-29T06:19:40.004Z,18.1
2018-01-29T06:20:48.693Z,18.05
2018-01-29T06:21:57.917Z,18.02
2018-01-29T06:23:07.413Z,18
2018-01-29T06:24:16.376Z,18.02
2018-01-29T06:25:25.333Z,17.96
2018-01-29T06:26:34.562Z,18.03
2018-01-29T06:27:43.558Z,18.07
2018-01-29T06:28:52.252Z,18.05
2018-01-29T06:30:01.477Z,18.07
2018-01-29T06:31:10.970Z,18.05
2018-01-29T06:32:19.930Z,18.1
2018-01-29T06:33:28.892Z,18.07
2018-01-29T06:34:38.119Z,18.08
2018-01-29T06:35:46.811Z,18.08
2018-01-29T06:36:55.506Z,18.08
2018-01-29T06:38:04.199Z,18.11
2018-01-29T06:39:13.158Z,18.08
2018-01-29T06:40:22.115Z,18.1
2018-01-29T06:41:31.340Z,18.08
2018-01-29T06:42:40.842Z,18.02
2018-01-29T06:43:49.535Z,18.14
2018-01-29T06:44:58.492Z,18.05
2018-01-29T06:46:07.185Z,18.03
2018-01-29T06:47:15.881Z,18.08
2018-01-29T06:48:24.577Z,18.1
2018-01-29T06:49:33.570Z,18.05
2018-01-29T06:50:43.067Z,18.1
2018-01-29T06:51:51.757Z,18.1
2018-01-29T06:53:00.982Z,18.08
2018-01-29T06:54:10.206Z,18.14
2018-01-29T06:55:19.506Z,18.08
2018-01-29T06:56:28.198Z,18.08
2018-01-29T06:57:36.896Z,18.05
2018-01-29T06:58:46.120Z,18.05
2018-01-29T06:59:55.345Z,18.08
2018-01-29T07:01:04.583Z,18.08
2018-01-29T07:02:13.280Z,18.05
2018-01-29T07:03:22.505Z,18.11
2018-01-29T07:04:31.736Z,18.05
2018-01-29T07:05:40.434Z,18.08
2018-01-29T07:06:49.656Z,18.1
2018-01-29T07:07:58.615Z,18.08
2018-01-29T07:09:07.573Z,18.02
2018-01-29T07:10:16.797Z,18.07
2018-01-29T07:11:25.764Z,18.07
2018-01-29T07:12:34.724Z,18.08
2018-01-29T07:13:43.415Z,18.1
2018-01-29T07:14:52.650Z,18.14
2018-01-29T07:16:02.191Z,18.1
2018-01-29T07:17:10.884Z,18.12
2018-01-29T07:18:20.116Z,18.05
2018-01-29T07:19:29.346Z,18.08
2018-01-29T07:20:38.572Z,18.1
2018-01-29T07:21:47.267Z,18.11
2018-01-29T07:22:56.232Z,18.11
2018-01-29T07:24:05.456Z,18.12
2018-01-29T07:25:14.684Z,18.11
2018-01-29T07:26:23.643Z,18.03
2018-01-29T07:27:32.336Z,18.12
2018-01-29T07:28:41.030Z,18.02
2018-01-29T07:29:49.720Z,18.02
2018-01-29T07:30:58.411Z,18.07
2018-01-29T07:32:07.368Z,18.12
2018-01-29T07:33:16.328Z,18.12
2018-01-29T07:34:25.288Z,18.1
2018-01-29T07:35:33.976Z,18.08
2018-01-29T07:36:42.934Z,18.11
2018-01-29T07:37:51.895Z,18.12
2018-01-29T07:39:00.587Z,18.2
2018-01-29T07:40:09.281Z,18.11
2018-01-29T07:41:17.974Z,18.12
2018-01-29T07:42:26.679Z,18.05
2018-01-29T07:43:36.184Z,18.23
2018-01-29T07:44:45.160Z,18.15
2018-01-29T07:45:54.129Z,18.14
2018-01-29T07:47:02.833Z,18.12
2018-01-29T07:48:11.802Z,18.23
2018-01-29T07:49:20.505Z,18.12
2018-01-29T07:50:29.208Z,18.17
2018-01-29T07:51:38.181Z,18.11
2018-01-29T07:52:47.469Z,18.15
2018-01-29T07:53:56.972Z,18.05
2018-01-29T07:55:06.208Z,18.12
2018-01-29T07:56:14.915Z,18.11
2018-01-29T07:57:23.893Z,18.25
2018-01-29T07:58:32.858Z,18.18
2018-01-29T07:59:42.099Z,18.17
2018-01-29T08:00:51.068Z,18.21
2018-01-29T08:02:00.848Z,18.14
2018-01-29T08:03:09.550Z,18.18
2018-01-29T08:04:18.519Z,18.14
2018-01-29T08:05:27.486Z,18.17
2018-01-29T08:06:36.456Z,18.21
2018-01-29T08:07:45.429Z,18.18
2018-01-29T08:08:54.401Z,18.17
2018-01-29T08:10:03.106Z,18.21
2018-01-29T08:11:12.347Z,18.15
2018-01-29T08:12:21.504Z,18.2
2018-01-29T08:13:30.739Z,18.17
2018-01-29T08:14:40.244Z,18.18
2018-01-29T08:15:49.219Z,18.14
2018-01-29T08:16:58.466Z,18.18
2018-01-29T08:18:07.436Z,18.15
2018-01-29T08:19:16.670Z,18.02
2018-01-29T08:20:25.907Z,18.05
2018-01-29T08:21:34.876Z,18.03
2018-01-29T08:22:43.862Z,18.05
2018-01-29T08:23:52.568Z,18.05
2018-01-29T08:25:01.543Z,18.11
2018-01-29T08:26:10.514Z,18.03
2018-01-29T08:27:19.753Z,18.07
2018-01-29T08:28:28.723Z,18.08
2018-01-29T08:29:37.694Z,18.1
2018-01-29T08:30:46.931Z,18.05
2018-01-29T08:31:56.175Z,18.07
2018-01-29T08:33:05.414Z,18.12
2018-01-29T08:34:14.115Z,18.1
2018-01-29T08:35:23.090Z,18.11
2018-01-29T08:36:32.057Z,18.05
2018-01-29T08:37:41.028Z,18.05
2018-01-29T08:38:50.267Z,18.1
2018-01-29T08:39:59.505Z,18.1
2018-01-29T08:41:08.208Z,18.1
2018-01-29T08:42:17.444Z,18.12
2018-01-29T08:43:26.149Z,18.02
2018-01-29T08:44:35.120Z,18.05
2018-01-29T08:45:44.096Z,18.03
2018-01-29T08:46:53.070Z,18.05
2018-01-29T08:48:02.575Z,18.1
2018-01-29T08:49:11.823Z,18.1
2018-01-29T08:50:20.794Z,18.08
2018-01-29T08:51:30.084Z,18.08
2018-01-29T08:52:39.054Z,18.14
2018-01-29T08:53:48.294Z,18.1
2018-01-29T08:54:57.316Z,18.2
2018-01-29T08:56:06.293Z,18.08
2018-01-29T08:57:14.996Z,18.1
2018-01-29T08:58:23.972Z,18.08
2018-01-29T08:59:32.951Z,18.03
2018-01-29T09:00:41.928Z,18.08
2018-01-29T09:01:51.464Z,18.11
2018-01-29T09:03:00.437Z,18.11
2018-01-29T09:04:09.401Z,18.08
2018-01-29T09:05:18.645Z,18.11
2018-01-29T09:06:27.350Z,18.1
2018-01-29T09:07:36.633Z,18.07
2018-01-29T09:08:45.337Z,18.08
2018-01-29T09:09:54.841Z,18.1
2018-01-29T09:11:03.545Z,18.15
2018-01-29T09:12:12.517Z,18.08
2018-01-29T09:13:22.069Z,18.11
2018-01-29T09:14:30.773Z,18.07
2018-01-29T09:15:39.747Z,18.11
2018-01-29T09:16:48.724Z,18.05
2018-01-29T09:17:57.426Z,18.02
2018-01-29T09:19:06.393Z,18.08
2018-01-29T09:20:15.096Z,18.07
2018-01-29T09:21:23.799Z,18.12
2018-01-29T09:22:33.036Z,18.1
2018-01-29T09:23:42.293Z,18.1
2018-01-29T09:24:50.998Z,18.12
2018-01-29T09:26:00.237Z,18.08
2018-01-29T09:27:09.208Z,18.05
2018-01-29T09:28:18.448Z,18.12
2018-01-29T09:29:27.420Z,18.1
2018-01-29T09:30:36.393Z,18.1
2018-01-29T09:31:45.362Z,18.12
2018-01-29T09:32:54.333Z,18.12
2018-01-29T09:34:03.575Z,18.08
2018-01-29T09:35:13.080Z,18.07
2018-01-29T09:36:21.784Z,18.1
2018-01-29T09:37:30.755Z,18.1
2018-01-29T09:38:39.731Z,18.1
2018-01-29T09:39:48.702Z,18.11
2018-01-29T09:40:57.681Z,18.05
2018-01-29T09:42:06.384Z,18.1
2018-01-29T09:43:15.630Z,18.11
2018-01-29T09:44:24.870Z,18.08
2018-01-29T09:45:33.572Z,18.1
2018-01-29T09:46:42.275Z,18.08
2018-01-29T09:47:51.245Z,18.1
2018-01-29T09:49:00.219Z,18.07
2018-01-29T09:50:09.190Z,18.1
2018-01-29T09:51:18.157Z,18.08
2018-01-29T09:52:27.394Z,18.03
2018-01-29T09:53:36.368Z,18.15
2018-01-29T09:54:45.340Z,18.05
2018-01-29T09:55:54.046Z,18.08
2018-01-29T09:57:02.749Z,18.11
2018-01-29T09:58:11.989Z,18.03
2018-01-29T09:59:21.225Z,18.17
2018-01-29T10:00:30.202Z,18.05
2018-01-29T10:01:39.178Z,18.02
2018-01-29T10:02:48.143Z,18.05
2018-01-29T10:03:56.849Z,18.05
2018-01-29T10:05:05.819Z,18.07
2018-01-29T10:06:15.050Z,18.07
2018-01-29T10:07:24.643Z,18.03
2018-01-29T10:08:33.335Z,18.11
2018-01-29T10:09:42.562Z,18.08
2018-01-29T10:10:51.523Z,18.07
2018-01-29T10:12:00.480Z,18.08
2018-01-29T10:13:09.171Z,18.1
2018-01-29T10:14:17.867Z,18.03
2018-01-29T10:15:27.367Z,18.11
2018-01-29T10:16:36.063Z,18.03
2018-01-29T10:17:45.555Z,18.07
2018-01-29T10:18:54.512Z,18.02
2018-01-29T10:20:03.471Z,18
2018-01-29T10:21:12.165Z,18.05
2018-01-29T10:22:20.859Z,18.12
2018-01-29T10:23:29.821Z,18.08
2018-01-29T10:24:38.783Z,18
2018-01-29T10:25:47.473Z,18.07
2018-01-29T10:26:56.433Z,18.08
2018-01-29T10:28:05.659Z,18.02
2018-01-29T10:29:14.881Z,18.02
2018-01-29T10:30:23.579Z,18.03
2018-01-29T10:31:32.603Z,18.02
2018-01-29T10:32:41.822Z,18.07
2018-01-29T10:33:51.109Z,17.97
2018-01-29T10:35:00.104Z,17.97
2018-01-29T10:36:09.063Z,18.11
2018-01-29T10:37:18.294Z,18
2018-01-29T10:38:27.253Z,18.02
2018-01-29T10:39:36.474Z,18.1
2018-01-29T10:40:45.430Z,18.03
2018-01-29T10:41:54.119Z,18.1
2018-01-29T10:43:03.084Z,18.08
2018-01-29T10:44:12.313Z,18.03
2018-01-29T10:45:21.010Z,18.1
2018-01-29T10:46:29.967Z,17.99
2018-01-29T10:47:38.665Z,18
2018-01-29T10:48:47.625Z,18
2018-01-29T10:49:57.115Z,17.99
2018-01-29T10:51:05.807Z,18.02
2018-01-29T10:52:14.500Z,18.05
2018-01-29T10:53:23.459Z,18.02
2018-01-29T10:54:32.426Z,17.97
2018-01-29T10:55:41.121Z,17.89
2018-01-29T10:56:49.819Z,17.87
2018-01-29T10:57:58.512Z,17.84
2018-01-29T10:59:07.745Z,17.84
2018-01-29T11:00:16.440Z,17.75
2018-01-29T11:01:25.697Z,17.77
2018-01-29T11:02:34.357Z,17.84
2018-01-29T11:03:43.589Z,17.74
2018-01-29T11:04:52.816Z,17.75
2018-01-29T11:06:02.050Z,17.82
2018-01-29T11:07:10.746Z,17.79
2018-01-29T11:08:20.501Z,17.87
2018-01-29T11:09:29.466Z,17.84
2018-01-29T11:10:38.693Z,17.79
2018-01-29T11:11:47.659Z,18
2018-01-29T11:12:56.618Z,17.9
2018-01-29T11:14:05.313Z,17.82
2018-01-29T11:15:14.008Z,17.86
2018-01-29T11:16:23.236Z,17.9
2018-01-29T11:17:31.968Z,17.87
2018-01-29T11:18:41.154Z,17.97
2018-01-29T11:19:50.113Z,17.95
2018-01-29T11:20:59.341Z,17.95
2018-01-29T11:22:08.298Z,17.97
2018-01-29T11:23:17.265Z,17.96
2018-01-29T11:24:26.224Z,17.97
2018-01-29T11:25:35.178Z,17.93
2018-01-29T11:26:44.189Z,17.97
2018-01-29T11:27:52.886Z,17.99
2018-01-29T11:29:01.582Z,17.96
2018-01-29T11:30:10.541Z,17.87
2018-01-29T11:31:19.502Z,18.05
2018-01-29T11:32:28.995Z,18.05
2018-01-29T11:33:37.954Z,18.05
2018-01-29T11:34:47.179Z,17.89
2018-01-29T11:35:56.423Z,17.97
2018-01-29T11:37:05.117Z,18.07
2018-01-29T11:38:14.342Z,17.93
2018-01-29T11:39:23.303Z,17.82
2018-01-29T11:40:31.997Z,17.87
2018-01-29T11:41:41.221Z,17.95
2018-01-29T11:42:50.442Z,18
2018-01-29T11:43:59.402Z,17.82
2018-01-29T11:45:08.951Z,18.02
2018-01-29T11:46:17.909Z,17.92
2018-01-29T11:47:26.871Z,18.05
2018-01-29T11:48:35.563Z,17.92
2018-01-29T11:49:44.785Z,18.05
2018-01-29T11:50:54.006Z,18.03
2018-01-29T11:52:03.230Z,18
2018-01-29T11:53:12.190Z,17.99
2018-01-29T11:54:20.885Z,18.02
2018-01-29T11:55:30.110Z,17.95
2018-01-29T11:56:39.334Z,18.05
2018-01-29T11:57:48.027Z,17.93
2018-01-29T11:58:56.983Z,17.97
2018-01-29T12:00:05.675Z,18.02
2018-01-29T12:01:14.366Z,18.05
2018-01-29T12:02:23.323Z,17.99
2018-01-29T12:03:32.289Z,17.95
2018-01-29T12:04:41.249Z,17.97
2018-01-29T12:05:50.208Z,18.05
2018-01-29T12:06:59.696Z,17.97
2018-01-29T12:08:08.928Z,18.02
2018-01-29T12:09:17.888Z,18.02
2018-01-29T12:10:26.854Z,18.08
2018-01-29T12:11:36.085Z,18.05
2018-01-29T12:12:45.314Z,17.99
2018-01-29T12:13:54.537Z,18.03
2018-01-29T12:15:03.237Z,17.99
2018-01-29T12:16:12.200Z,17.97
2018-01-29T12:17:20.893Z,17.93
2018-01-29T12:18:29.856Z,18.12
2018-01-29T12:19:38.815Z,18.1
2018-01-29T12:20:48.037Z,17.99
2018-01-29T12:21:57.529Z,17.97
2018-01-29T12:23:06.753Z,17.95
2018-01-29T12:24:15.983Z,18.02
2018-01-29T12:25:25.521Z,17.99
2018-01-29T12:26:34.752Z,18
2018-01-29T12:27:43.975Z,18.1
2018-01-29T12:28:52.670Z,18.02
2018-01-29T12:30:01.629Z,17.97
2018-01-29T12:31:10.320Z,18.08
2018-01-29T12:32:19.551Z,18.03
2018-01-29T12:33:28.516Z,18
2018-01-29T12:34:37.478Z,17.97
2018-01-29T12:35:46.702Z,17.96
2018-01-29T12:36:55.666Z,18.08
2018-01-29T12:38:04.626Z,18.03
2018-01-29T12:39:13.320Z,18.05
2018-01-29T12:40:22.866Z,18.03
2018-01-29T12:41:32.092Z,18
2018-01-29T12:42:41.322Z,18.03
2018-01-29T12:43:50.281Z,17.99
2018-01-29T12:44:59.512Z,18.07
2018-01-29T12:46:08.210Z,18.03
2018-01-29T12:47:17.709Z,17.99
2018-01-29T12:48:26.933Z,18.12
2018-01-29T12:49:35.886Z,18.02
2018-01-29T12:50:45.113Z,18.02
2018-01-29T12:51:54.075Z,17.99
2018-01-29T12:53:02.771Z,17.99
2018-01-29T12:54:11.465Z,18.02
2018-01-29T12:55:20.428Z,18.05
2018-01-29T12:56:29.388Z,18.05
2018-01-29T12:57:38.084Z,18.03
2018-01-29T12:58:47.042Z,18.03
2018-01-29T12:59:56.002Z,17.99
2018-01-29T13:01:04.703Z,17.99
2018-01-29T13:02:13.928Z,17.89
2018-01-29T13:03:22.887Z,17.87
2018-01-29T13:04:32.113Z,17.82
2018-01-29T13:05:40.810Z,17.87
2018-01-29T13:06:50.037Z,17.74
2018-01-29T13:07:59.001Z,17.71
2018-01-29T13:09:07.958Z,17.71
2018-01-29T13:10:16.916Z,17.78
2018-01-29T13:11:25.605Z,17.75
2018-01-29T13:12:34.831Z,17.75
2018-01-29T13:13:44.058Z,17.82
2018-01-29T13:14:53.286Z,17.77
2018-01-29T13:16:02.515Z,17.84
2018-01-29T13:17:11.476Z,17.81
2018-01-29T13:18:20.174Z,17.81
2018-01-29T13:19:29.403Z,17.82
2018-01-29T13:20:38.360Z,17.84
2018-01-29T13:21:47.319Z,17.82
2018-01-29T13:22:56.278Z,17.79
2018-01-29T13:24:04.970Z,17.82
2018-01-29T13:25:13.929Z,17.84
2018-01-29T13:26:22.890Z,17.84
2018-01-29T13:27:32.113Z,17.74
2018-01-29T13:28:41.070Z,17.86
2018-01-29T13:29:50.562Z,17.84
2018-01-29T13:30:59.253Z,17.75
2018-01-29T13:32:08.261Z,17.86
2018-01-29T13:33:17.488Z,17.89
2018-01-29T13:34:26.180Z,17.75
2018-01-29T13:35:34.873Z,17.82
2018-01-29T13:36:44.362Z,17.75
2018-01-29T13:37:53.323Z,17.82
2018-01-29T13:39:02.280Z,17.82
2018-01-29T13:40:11.495Z,17.82
2018-01-29T13:41:20.465Z,17.74
2018-01-29T13:42:29.426Z,17.75
2018-01-29T13:43:38.387Z,17.87
2018-01-29T13:44:47.348Z,17.72
2018-01-29T13:45:56.306Z,17.78
2018-01-29T13:47:05.262Z,17.77
2018-01-29T13:48:14.221Z,17.75
2018-01-29T13:49:23.182Z,17.74
2018-01-29T13:50:32.143Z,17.78
2018-01-29T13:51:40.837Z,17.75
2018-01-29T13:52:49.798Z,17.82
2018-01-29T13:53:58.757Z,17.74
2018-01-29T13:55:07.726Z,17.87
2018-01-29T13:56:17.219Z,17.78
2018-01-29T13:57:26.179Z,17.82
2018-01-29T13:58:35.145Z,17.84
2018-01-29T13:59:44.101Z,17.82
2018-01-29T14:00:52.792Z,17.75
2018-01-29T14:02:01.488Z,17.86
2018-01-29T14:03:10.450Z,17.82
2018-01-29T14:04:19.410Z,17.89
2018-01-29T14:05:28.376Z,17.71
2018-01-29T14:06:37.072Z,17.86
2018-01-29T14:07:45.765Z,17.82
2018-01-29T14:08:54.454Z,17.79
2018-01-29T14:10:03.675Z,17.82
2018-01-29T14:11:12.910Z,17.86
2018-01-29T14:12:22.130Z,17.75
2018-01-29T14:13:30.822Z,17.7
2018-01-29T14:14:40.310Z,17.71
2018-01-29T14:15:49.538Z,17.89
2018-01-29T14:16:58.234Z,17.71
2018-01-29T14:18:06.929Z,17.86
2018-01-29T14:19:15.620Z,17.82
2018-01-29T14:20:24.846Z,17.81
2018-01-29T14:21:33.538Z,17.84
2018-01-29T14:22:42.767Z,17.82
2018-01-29T14:23:51.731Z,17.84
2018-01-29T14:25:00.691Z,17.84
2018-01-29T14:26:09.381Z,17.81
2018-01-29T14:27:18.339Z,17.81
2018-01-29T14:28:27.300Z,17.81
2018-01-29T14:29:36.259Z,17.84
2018-01-29T14:30:44.953Z,17.84
2018-01-29T14:31:53.912Z,17.87
2018-01-29T14:33:02.875Z,17.84
2018-01-29T14:34:11.574Z,17.79
2018-01-29T14:35:20.797Z,17.89
2018-01-29T14:36:29.496Z,17.89
2018-01-29T14:37:38.186Z,17.87
2018-01-29T14:38:47.411Z,17.93
2018-01-29T14:39:56.104Z,17.9
2018-01-29T14:41:05.334Z,18
2018-01-29T14:42:14.296Z,17.89
2018-01-29T14:43:22.986Z,17.92
2018-01-29T14:44:31.945Z,17.93
2018-01-29T14:45:40.649Z,17.97
2018-01-29T14:46:49.873Z,18.03
2018-01-29T14:47:58.827Z,17.95
2018-01-29T14:49:07.523Z,17.93
2018-01-29T14:50:16.745Z,17.95
2018-01-29T14:51:25.742Z,17.9
2018-01-29T14:52:34.975Z,17.99
2018-01-29T14:53:44.739Z,17.99